createdAt,value
2019-04-06T00:01:11.609Z,35.03
2019-04-06T00:03:37.861Z,38.43
2019-04-06T00:06:04.345Z,37.73
2019-04-06T00:08:30.583Z,41.30
2019-04-06T00:10:56.812Z,35.30
2019-04-06T00:13:23.068Z,35.87
2019-04-06T00:15:49.289Z,42.60
2019-04-06T00:18:15.545Z,35.30
2019-04-06T00:20:41.872Z,36.87
2019-04-06T00:23:08.244Z,42.20
2019-04-06T00:25:43.781Z,30.60
2019-04-06T00:28:02.750Z,31.37
2019-04-06T00:30:30.892Z,40.07
2019-04-06T00:33:04.723Z,33.47
2019-04-06T00:35:30.947Z,42.57
2019-04-06T00:37:57.217Z,36.13
2019-04-06T00:40:23.463Z,35.20
2019-04-06T00:42:49.694Z,32.47
2019-04-06T00:45:16.032Z,33.30
2019-04-06T00:47:42.274Z,38.63
2019-04-06T00:50:09.058Z,39.40
2019-04-06T00:52:35.236Z,35.57
2019-04-06T00:55:01.488Z,32.60
2019-04-06T00:57:27.757Z,33.13
2019-04-06T00:59:54.019Z,36.87
2019-04-06T01:02:20.217Z,39.90
2019-04-06T01:04:46.466Z,34.70
2019-04-06T01:07:12.693Z,35.43
2019-04-06T01:09:39.046Z,38.20
2019-04-06T01:12:05.384Z,43.53
2019-04-06T01:14:31.637Z,42.30
2019-04-06T01:16:57.986Z,36.97
2019-04-06T01:19:24.255Z,33.80
2019-04-06T01:21:50.505Z,40.87
2019-04-06T01:24:16.728Z,32.67
2019-04-06T01:26:42.962Z,37.50
2019-04-06T01:29:09.189Z,37.17
2019-04-06T01:31:35.457Z,32.90
2019-04-06T01:34:01.958Z,38.40
2019-04-06T01:36:28.186Z,47.00
2019-04-06T01:38:54.412Z,41.17
2019-04-06T01:41:20.663Z,37.43
2019-04-06T01:43:46.891Z,45.07
2019-04-06T01:46:13.149Z,36.87
2019-04-06T01:48:39.422Z,35.30
2019-04-06T01:51:05.773Z,36.37
2019-04-06T01:53:32.030Z,35.80
2019-04-06T01:55:58.274Z,32.40
2019-04-06T01:58:24.492Z,39.70
2019-04-06T02:01:01.374Z,39.47
2019-04-06T02:03:27.603Z,40.47
2019-04-06T02:05:53.978Z,34.10
2019-04-06T02:08:20.218Z,34.40
2019-04-06T02:10:46.522Z,37.17
2019-04-06T02:13:12.693Z,35.93
2019-04-06T02:15:38.923Z,36.23
2019-04-06T02:18:06.058Z,37.03
2019-04-06T02:20:32.423Z,45.23
2019-04-06T02:22:58.931Z,39.43
2019-04-06T02:25:25.174Z,35.93
2019-04-06T02:27:51.486Z,35.13
2019-04-06T02:30:28.280Z,38.20
2019-04-06T02:32:59.315Z,43.43
2019-04-06T02:35:27.562Z,38.83
2019-04-06T02:38:01.630Z,36.90
2019-04-06T02:40:38.514Z,39.80
2019-04-06T02:43:06.657Z,39.20
2019-04-06T02:45:32.885Z,37.67
2019-04-06T02:47:59.140Z,33.60
2019-04-06T02:50:25.556Z,36.43
2019-04-06T02:52:51.810Z,35.43
2019-04-06T02:55:18.049Z,40.63
2019-04-06T02:57:44.297Z,39.67
2019-04-06T03:00:10.740Z,39.53
2019-04-06T03:02:37.080Z,38.10
2019-04-06T03:05:05.611Z,42.00
2019-04-06T03:07:31.844Z,36.57
2019-04-06T03:09:58.466Z,39.50
2019-04-06T03:12:24.805Z,42.40
2019-04-06T03:14:51.056Z,43.50
2019-04-06T03:17:17.331Z,36.83
2019-04-06T03:19:43.960Z,39.90
2019-04-06T03:22:10.228Z,38.87
2019-04-06T03:24:36.470Z,39.33
2019-04-06T03:27:03.258Z,40.43
2019-04-06T03:29:29.527Z,44.17
2019-04-06T03:31:55.807Z,41.17
2019-04-06T03:34:22.845Z,41.10
2019-04-06T03:36:49.554Z,43.60
2019-04-06T03:39:15.803Z,40.37
2019-04-06T03:41:41.983Z,32.13
2019-04-06T03:44:08.211Z,43.33
2019-04-06T03:46:34.462Z,38.47
2019-04-06T03:49:00.729Z,39.47
2019-04-06T03:51:26.937Z,40.77
2019-04-06T03:53:53.276Z,41.10
2019-04-06T03:56:19.516Z,37.30
2019-04-06T03:58:45.759Z,38.37
2019-04-06T04:01:12.081Z,37.80
2019-04-06T04:03:38.325Z,39.07
2019-04-06T04:06:04.839Z,34.27
2019-04-06T04:08:31.233Z,38.83
2019-04-06T04:10:57.456Z,42.77
2019-04-06T04:13:24.016Z,43.50
2019-04-06T04:15:50.350Z,34.33
2019-04-06T04:18:16.580Z,38.20
2019-04-06T04:20:42.880Z,37.90
2019-04-06T04:23:09.174Z,37.33
2019-04-06T04:25:35.577Z,42.07
2019-04-06T04:28:01.854Z,34.77
2019-04-06T04:30:32.977Z,35.40
2019-04-06T04:32:56.234Z,38.70
2019-04-06T04:35:22.701Z,40.63
2019-04-06T04:37:49.281Z,41.37
2019-04-06T04:40:15.749Z,39.20
2019-04-06T04:42:42.080Z,36.17
2019-04-06T04:45:08.609Z,32.80
2019-04-06T04:47:34.957Z,41.27
2019-04-06T04:50:01.513Z,45.33
2019-04-06T04:52:27.793Z,39.00
2019-04-06T04:54:54.030Z,43.37
2019-04-06T04:57:20.429Z,45.03
2019-04-06T04:59:46.624Z,36.57
2019-04-06T05:02:12.836Z,40.03
2019-04-06T05:04:39.343Z,41.70
2019-04-06T05:07:05.572Z,39.00
2019-04-06T05:09:31.808Z,44.50
2019-04-06T05:11:58.043Z,43.03
2019-04-06T05:14:56.828Z,36.13
2019-04-06T05:17:23.246Z,38.90
2019-04-06T05:19:49.466Z,40.53
2019-04-06T05:22:15.689Z,53.53
2019-04-06T05:24:42.011Z,46.60
2019-04-06T05:27:08.247Z,48.53
2019-04-06T05:29:34.506Z,39.50
2019-04-06T05:32:00.728Z,39.57
2019-04-06T05:34:26.978Z,42.23
2019-04-06T05:36:53.199Z,42.73
2019-04-06T05:39:19.571Z,42.70
2019-04-06T05:41:45.751Z,36.00
2019-04-06T05:44:12.014Z,43.33
2019-04-06T05:46:38.255Z,37.70
2019-04-06T05:49:04.756Z,49.87
2019-04-06T05:51:30.978Z,54.57
2019-04-06T05:53:57.221Z,46.30
2019-04-06T05:56:23.434Z,46.00
2019-04-06T05:58:49.736Z,45.30
2019-04-06T06:01:16.321Z,48.97
2019-04-06T06:03:42.583Z,57.80
2019-04-06T06:06:08.847Z,51.70
2019-04-06T06:08:35.072Z,46.00
2019-04-06T06:11:01.314Z,52.43
2019-04-06T06:13:27.536Z,50.60
2019-04-06T06:15:53.768Z,54.23
2019-04-06T06:18:26.355Z,50.10
2019-04-06T06:20:48.421Z,57.43
2019-04-06T06:23:15.009Z,57.03
2019-04-06T06:25:41.236Z,49.83
2019-04-06T06:28:14.176Z,53.87
2019-04-06T06:30:35.939Z,64.50
2019-04-06T06:33:02.493Z,56.50
2019-04-06T06:35:28.844Z,48.90
2019-04-06T06:37:55.103Z,56.30
2019-04-06T06:40:21.357Z,51.83
2019-04-06T06:42:47.576Z,45.80
2019-04-06T06:45:16.373Z,51.07
2019-04-06T06:47:42.690Z,47.63
2019-04-06T06:50:11.474Z,46.13
2019-04-06T06:52:43.018Z,55.70
2019-04-06T06:55:09.697Z,139.80
2019-04-06T06:57:36.103Z,85.97
2019-04-06T07:00:04.190Z,53.43
2019-04-06T07:02:30.650Z,55.40
2019-04-06T07:04:56.950Z,48.73
2019-04-06T07:07:23.290Z,50.17
2019-04-06T07:09:49.504Z,49.17
2019-04-06T07:12:15.772Z,53.00
2019-04-06T07:14:42.006Z,53.80
2019-04-06T07:17:08.268Z,57.67
2019-04-06T07:19:34.482Z,48.17
2019-04-06T07:22:00.757Z,51.47
2019-04-06T07:24:27.007Z,55.90
2019-04-06T07:26:53.219Z,54.57
2019-04-06T07:29:19.469Z,49.37
2019-04-06T07:31:45.749Z,60.37
2019-04-06T07:34:12.075Z,56.20
2019-04-06T07:36:38.314Z,49.70
2019-04-06T07:39:05.261Z,53.47
2019-04-06T07:41:31.488Z,52.50
2019-04-06T07:43:57.729Z,51.70
2019-04-06T07:46:23.969Z,51.70
2019-04-06T07:48:50.211Z,55.13
2019-04-06T07:51:16.435Z,57.87
2019-04-06T07:53:42.672Z,55.30
2019-04-06T07:56:08.903Z,56.10
2019-04-06T07:58:35.153Z,51.53
2019-04-06T08:01:01.504Z,55.70
2019-04-06T08:03:27.787Z,57.00
2019-04-06T08:05:54.011Z,56.97
2019-04-06T08:08:20.271Z,55.50
2019-04-06T08:10:46.999Z,57.63
2019-04-06T08:13:13.231Z,56.23
2019-04-06T08:15:39.478Z,56.30
2019-04-06T08:18:05.801Z,60.50
2019-04-06T08:20:32.013Z,61.30
2019-04-06T08:22:58.350Z,63.30
2019-04-06T08:25:24.598Z,58.53
2019-04-06T08:27:50.828Z,57.13
2019-04-06T08:30:17.257Z,60.77
2019-04-06T08:32:43.477Z,58.53
2019-04-06T08:35:10.822Z,54.50
2019-04-06T08:37:37.087Z,64.13
2019-04-06T08:40:05.609Z,55.63
2019-04-06T08:42:31.916Z,55.53
2019-04-06T08:44:58.086Z,56.90
2019-04-06T08:47:24.697Z,63.33
2019-04-06T08:49:50.927Z,63.53
2019-04-06T08:52:17.171Z,55.53
2019-04-06T08:54:43.426Z,50.60
2019-04-06T08:57:09.662Z,55.03
2019-04-06T08:59:35.876Z,62.40
2019-04-06T09:02:02.163Z,57.10
2019-04-06T09:04:28.360Z,58.30
2019-04-06T09:06:54.685Z,54.63
2019-04-06T09:09:20.962Z,51.97
2019-04-06T09:11:47.239Z,55.03
2019-04-06T09:14:15.451Z,49.33
2019-04-06T09:16:41.793Z,48.87
2019-04-06T09:19:08.020Z,46.97
2019-04-06T09:21:34.261Z,50.37
2019-04-06T09:24:00.505Z,52.10
2019-04-06T09:26:26.927Z,45.67
2019-04-06T09:28:53.200Z,48.97
2019-04-06T09:31:19.435Z,52.70
2019-04-06T09:33:45.721Z,47.60
2019-04-06T09:36:12.073Z,44.23
2019-04-06T09:38:38.307Z,49.80
2019-04-06T09:41:04.649Z,47.00
2019-04-06T09:43:30.916Z,47.83
2019-04-06T09:46:17.117Z,44.03
2019-04-06T09:48:48.282Z,43.53
2019-04-06T09:51:19.337Z,39.37
2019-04-06T09:54:06.359Z,38.10
2019-04-06T09:56:43.152Z,40.80
2019-04-06T09:59:11.296Z,43.80
2019-04-06T10:01:54.420Z,41.07
2019-04-06T10:04:40.750Z,38.33
2019-04-06T10:07:21.067Z,37.63
2019-04-06T10:09:52.214Z,34.10
2019-04-06T10:12:37.138Z,34.03
2019-04-06T10:15:23.680Z,47.73
2019-04-06T10:18:03.836Z,32.33
2019-04-06T10:20:44.142Z,28.30
2019-04-06T10:23:29.127Z,30.30
2019-04-06T10:26:13.632Z,38.33
2019-04-06T10:28:58.183Z,38.73
2019-04-06T10:31:28.965Z,38.70
2019-04-06T10:34:03.122Z,37.60
2019-04-06T10:36:40.177Z,31.60
2019-04-06T10:39:08.350Z,35.90
2019-04-06T10:41:39.154Z,32.83
2019-04-06T10:44:13.204Z,29.23
2019-04-06T10:46:41.339Z,29.87
2019-04-06T10:49:15.642Z,30.40
2019-04-06T10:52:00.760Z,31.47
2019-04-06T10:54:45.707Z,30.70
2019-04-06T10:57:19.956Z,32.57
2019-04-06T11:00:11.836Z,31.90
2019-04-06T11:02:46.074Z,46.00
2019-04-06T11:05:14.344Z,32.60
2019-04-06T11:07:51.737Z,35.63
2019-04-06T11:10:29.014Z,36.17
2019-04-06T11:13:14.033Z,34.20
2019-04-06T11:15:44.786Z,41.50
2019-04-06T11:18:15.857Z,34.20
2019-04-06T11:20:44.017Z,35.47
2019-04-06T11:23:18.574Z,40.53
2019-04-06T11:25:49.704Z,33.23
2019-04-06T11:28:23.538Z,34.80
2019-04-06T11:31:10.298Z,36.63
2019-04-06T11:33:55.005Z,33.43
2019-04-06T11:36:26.303Z,39.83
2019-04-06T11:39:00.861Z,35.17
2019-04-06T11:41:31.623Z,34.97
2019-04-06T11:44:15.311Z,34.50
2019-04-06T11:46:43.457Z,31.60
2019-04-06T11:49:23.742Z,33.17
2019-04-06T11:51:58.638Z,35.87
2019-04-06T11:54:26.787Z,27.80
2019-04-06T11:57:13.510Z,31.57
2019-04-06T11:59:53.660Z,30.27
2019-04-06T12:02:25.114Z,30.13
2019-04-06T12:05:10.004Z,32.73
2019-04-06T12:07:43.811Z,32.97
2019-04-06T12:10:27.993Z,33.33
2019-04-06T12:12:58.776Z,28.50
2019-04-06T12:15:41.957Z,30.27
2019-04-06T12:18:10.139Z,28.13
2019-04-06T12:20:38.334Z,33.57
2019-04-06T12:23:23.002Z,28.93
2019-04-06T12:26:06.096Z,25.97
2019-04-06T12:28:34.247Z,21.70
2019-04-06T12:31:05.345Z,21.50
2019-04-06T12:33:50.071Z,21.10
2019-04-06T12:36:18.365Z,22.47
2019-04-06T12:38:56.667Z,19.70
2019-04-06T12:41:33.795Z,20.50
2019-04-06T12:44:18.801Z,24.60
2019-04-06T12:46:55.762Z,23.50
2019-04-06T12:49:23.904Z,24.43
2019-04-06T12:52:09.262Z,25.83
2019-04-06T12:54:40.803Z,22.87
2019-04-06T12:57:21.133Z,22.87
2019-04-06T12:59:58.344Z,27.80
2019-04-06T13:02:26.933Z,19.10
2019-04-06T13:04:57.725Z,24.90
2019-04-06T13:07:42.405Z,21.90
2019-04-06T13:10:26.365Z,24.20
2019-04-06T13:13:03.458Z,22.13
2019-04-06T13:15:31.636Z,17.50
2019-04-06T13:18:12.189Z,20.33
2019-04-06T13:20:57.399Z,16.77
2019-04-06T13:23:25.814Z,16.57
2019-04-06T13:26:12.032Z,16.03
2019-04-06T13:28:58.244Z,15.17
2019-04-06T13:31:35.317Z,22.10
2019-04-06T13:34:18.749Z,13.73
2019-04-06T13:37:02.252Z,12.80
2019-04-06T13:39:45.001Z,13.37
2019-04-06T13:42:31.510Z,13.80
2019-04-06T13:45:18.231Z,16.20
2019-04-06T13:47:46.845Z,11.17
2019-04-06T13:50:26.958Z,14.10
2019-04-06T13:53:01.704Z,11.13
2019-04-06T13:55:30.012Z,11.17
2019-04-06T13:58:07.130Z,12.40
2019-04-06T14:00:35.408Z,14.60
2019-04-06T14:03:09.229Z,11.87
2019-04-06T14:05:39.976Z,16.10
2019-04-06T14:08:17.023Z,13.10
2019-04-06T14:11:02.289Z,12.50
2019-04-06T14:13:36.172Z,13.43
2019-04-06T14:16:07.965Z,16.73
2019-04-06T14:18:38.753Z,11.93
2019-04-06T14:21:13.467Z,11.53
2019-04-06T14:23:47.727Z,14.30
2019-04-06T14:26:18.763Z,20.87
2019-04-06T14:28:47.160Z,17.47
2019-04-06T14:31:29.953Z,12.07
2019-04-06T14:34:14.351Z,10.83
2019-04-06T14:36:54.994Z,12.53
2019-04-06T14:39:39.831Z,12.20
2019-04-06T14:42:23.946Z,12.03
2019-04-06T14:44:54.958Z,9.63
2019-04-06T14:47:38.099Z,12.10
2019-04-06T14:50:15.489Z,11.77
2019-04-06T14:53:01.637Z,12.90
2019-04-06T14:55:29.773Z,15.37
2019-04-06T14:58:00.595Z,11.50
2019-04-06T15:00:31.926Z,12.50
2019-04-06T15:03:00.076Z,15.50
2019-04-06T15:05:36.951Z,11.43
2019-04-06T15:08:08.075Z,12.90
2019-04-06T15:10:39.610Z,15.63
2019-04-06T15:13:10.513Z,12.13
2019-04-06T15:15:41.726Z,9.93
2019-04-06T15:18:22.158Z,13.53
2019-04-06T15:20:59.320Z,10.90
2019-04-06T15:23:27.912Z,10.70
2019-04-06T15:26:07.943Z,12.47
2019-04-06T15:28:36.112Z,10.40
2019-04-06T15:31:06.939Z,18.00
2019-04-06T15:33:35.296Z,11.10
2019-04-06T15:36:09.142Z,13.17
2019-04-06T15:38:40.197Z,10.20
2019-04-06T15:41:25.632Z,13.63
2019-04-06T15:44:06.292Z,8.23
2019-04-06T15:46:34.480Z,13.13
2019-04-06T15:49:19.135Z,8.70
2019-04-06T15:51:47.507Z,10.70
2019-04-06T15:54:21.388Z,10.87
2019-04-06T15:57:06.345Z,8.27
2019-04-06T15:59:51.467Z,8.53
2019-04-06T16:02:31.577Z,8.50
2019-04-06T16:05:16.070Z,8.10
2019-04-06T16:07:47.184Z,6.57
2019-04-06T16:10:24.982Z,8.27
2019-04-06T16:13:02.503Z,7.60
2019-04-06T16:15:39.539Z,7.90
2019-04-06T16:18:10.396Z,7.13
2019-04-06T16:20:38.755Z,10.37
2019-04-06T16:23:25.327Z,10.40
2019-04-06T16:25:53.577Z,6.90
2019-04-06T16:28:22.123Z,6.70
2019-04-06T16:30:59.251Z,8.73
2019-04-06T16:33:30.281Z,6.53
2019-04-06T16:36:13.810Z,7.83
2019-04-06T16:38:42.025Z,6.23
2019-04-06T16:41:19.287Z,7.47
2019-04-06T16:43:47.563Z,9.00
2019-04-06T16:46:16.203Z,8.17
2019-04-06T16:48:47.761Z,8.03
2019-04-06T16:51:15.958Z,6.10
2019-04-06T16:53:47.123Z,5.80
2019-04-06T16:56:24.826Z,6.43
2019-04-06T16:58:55.594Z,8.23
2019-04-06T17:01:26.396Z,8.10
2019-04-06T17:04:12.773Z,6.63
2019-04-06T17:06:41.023Z,8.00
2019-04-06T17:09:09.254Z,7.17
2019-04-06T17:11:37.388Z,6.50
2019-04-06T17:14:05.529Z,6.97
2019-04-06T17:16:36.695Z,11.63
2019-04-06T17:19:10.933Z,8.93
2019-04-06T17:21:45.490Z,6.17
2019-04-06T17:24:16.731Z,8.13
2019-04-06T17:26:48.073Z,6.47
2019-04-06T17:29:28.231Z,6.73
2019-04-06T17:32:02.085Z,11.03
2019-04-06T17:34:33.630Z,17.63
2019-04-06T17:37:02.890Z,8.97
2019-04-06T17:39:34.547Z,7.77
2019-04-06T17:42:11.444Z,10.47
2019-04-06T17:44:39.601Z,7.07
2019-04-06T17:47:13.679Z,9.80
2019-04-06T17:49:58.528Z,7.40
2019-04-06T17:52:29.678Z,9.67
2019-04-06T17:54:58.101Z,10.63
2019-04-06T17:57:26.376Z,9.40
2019-04-06T18:00:09.848Z,7.57
2019-04-06T18:02:50.552Z,10.43
2019-04-06T18:05:17.168Z,7.33
2019-04-06T18:07:54.468Z,7.57
2019-04-06T18:10:25.535Z,12.03
2019-04-06T18:13:02.841Z,8.67
2019-04-06T18:15:29.422Z,7.73
2019-04-06T18:17:56.079Z,7.90
2019-04-06T18:20:22.432Z,8.60
2019-04-06T18:22:48.970Z,8.83
2019-04-06T18:25:15.702Z,7.67
2019-04-06T18:27:42.012Z,8.33
2019-04-06T18:30:09.116Z,14.50
2019-04-06T18:32:43.252Z,10.23
2019-04-06T18:35:10.821Z,12.40
2019-04-06T18:37:44.877Z,12.53
2019-04-06T18:40:13.954Z,6.73
2019-04-06T18:42:40.622Z,10.37
2019-04-06T18:45:07.531Z,9.20
2019-04-06T18:47:33.913Z,9.30
2019-04-06T18:50:00.122Z,7.93
2019-04-06T18:52:26.367Z,7.53
2019-04-06T18:54:52.821Z,9.80
2019-04-06T18:57:20.149Z,8.27
2019-04-06T18:59:46.434Z,11.47
2019-04-06T19:02:12.978Z,10.27
2019-04-06T19:04:39.632Z,9.70
2019-04-06T19:07:06.169Z,10.63
2019-04-06T19:09:33.802Z,10.13
2019-04-06T19:12:00.770Z,8.27
2019-04-06T19:14:36.172Z,8.90
2019-04-06T19:17:03.015Z,9.67
2019-04-06T19:19:29.805Z,11.03
2019-04-06T19:21:57.139Z,8.87
2019-04-06T19:24:24.059Z,9.37
2019-04-06T19:26:50.935Z,10.90
2019-04-06T19:29:17.357Z,8.90
2019-04-06T19:31:47.883Z,9.60
2019-04-06T19:34:14.672Z,9.47
2019-04-06T19:36:41.421Z,8.23
2019-04-06T19:39:12.348Z,11.03
2019-04-06T19:41:40.631Z,13.60
2019-04-06T19:46:54.871Z,10.77
2019-04-06T19:49:23.051Z,12.20
2019-04-06T19:51:50.247Z,8.90
2019-04-06T19:54:17.607Z,7.50
2019-04-06T19:56:45.005Z,6.27
2019-04-06T19:59:13.465Z,13.47
2019-04-06T20:01:44.718Z,11.10
2019-04-06T20:04:12.186Z,9.57
2019-04-06T20:06:39.988Z,15.43
2019-04-06T20:09:08.585Z,6.77
2019-04-06T20:11:36.693Z,10.23
2019-04-06T20:14:04.384Z,15.23
2019-04-06T20:16:31.868Z,8.10
2019-04-06T20:18:59.037Z,14.03
2019-04-06T20:21:25.561Z,9.87
2019-04-06T20:23:51.819Z,9.70
2019-04-06T20:26:20.948Z,9.57
2019-04-06T20:28:47.224Z,10.37
2019-04-06T20:31:13.478Z,9.50
2019-04-06T20:33:48.165Z,8.23
2019-04-06T20:36:08.182Z,7.80
2019-04-06T20:38:34.460Z,8.70
2019-04-06T20:41:01.078Z,11.20
2019-04-06T20:43:27.600Z,9.57
2019-04-06T20:45:54.343Z,9.57
2019-04-06T20:48:20.690Z,9.50
2019-04-06T20:50:47.801Z,7.60
2019-04-06T20:53:14.577Z,7.60
2019-04-06T20:55:40.954Z,10.30
2019-04-06T20:58:07.333Z,7.43
2019-04-06T21:00:33.690Z,7.47
2019-04-06T21:02:59.909Z,7.23
2019-04-06T21:05:26.268Z,8.43
2019-04-06T21:07:52.557Z,14.40
2019-04-06T21:10:19.134Z,8.23
2019-04-06T21:12:45.564Z,9.33
2019-04-06T21:15:18.905Z,6.53
2019-04-06T21:17:40.258Z,6.43
2019-04-06T21:20:07.709Z,8.57
2019-04-06T21:22:34.208Z,5.73
2019-04-06T21:25:00.475Z,10.10
2019-04-06T21:27:27.111Z,7.83
2019-04-06T21:29:54.312Z,7.80
2019-04-06T21:32:20.772Z,10.67
2019-04-06T21:34:46.985Z,14.07
2019-04-06T21:37:13.418Z,6.70
2019-04-06T21:39:39.728Z,5.20
2019-04-06T21:42:06.000Z,5.43
2019-04-06T21:44:32.239Z,5.13
2019-04-06T21:46:59.036Z,5.87
2019-04-06T21:49:28.866Z,6.10
2019-04-06T21:51:55.314Z,5.40
2019-04-06T21:54:21.543Z,8.90
2019-04-06T21:56:47.919Z,6.40
2019-04-06T21:59:15.949Z,4.90
2019-04-06T22:01:42.468Z,6.37
2019-04-06T22:04:08.768Z,4.80
2019-04-06T22:06:48.939Z,10.87
2019-04-06T22:09:15.490Z,6.97
2019-04-06T22:11:42.403Z,6.93
2019-04-06T22:14:09.308Z,5.47
2019-04-06T22:16:35.673Z,8.37
2019-04-06T22:19:01.900Z,12.77
2019-04-06T22:21:34.641Z,7.47
2019-04-06T22:24:01.513Z,5.53
2019-04-06T22:26:27.756Z,5.13
2019-04-06T22:28:53.998Z,7.80
2019-04-06T22:31:20.230Z,6.30
2019-04-06T22:33:46.502Z,6.37
2019-04-06T22:36:12.921Z,6.40
2019-04-06T22:38:39.173Z,3.83
2019-04-06T22:41:05.698Z,4.20
2019-04-06T22:43:32.814Z,6.33
2019-04-06T22:45:59.930Z,5.33
2019-04-06T22:48:26.600Z,4.20
2019-04-06T22:50:52.860Z,3.83
2019-04-06T22:53:19.095Z,4.27
2019-04-06T22:55:45.848Z,3.97
2019-04-06T22:58:12.774Z,4.00
2019-04-06T23:00:48.500Z,6.33
2019-04-06T23:03:22.586Z,3.90
2019-04-06T23:05:57.265Z,4.30
2019-04-06T23:08:23.599Z,4.10
2019-04-06T23:10:50.416Z,3.70
2019-04-06T23:13:16.825Z,4.87
2019-04-06T23:15:43.040Z,5.30
2019-04-06T23:18:09.383Z,3.80
2019-04-06T23:20:35.601Z,6.00
2019-04-06T23:23:02.227Z,3.77
2019-04-06T23:25:28.885Z,4.47
2019-04-06T23:27:55.686Z,5.97
2019-04-06T23:30:21.892Z,3.60
2019-04-06T23:32:48.132Z,3.90
2019-04-06T23:35:14.367Z,3.73
2019-04-06T23:37:40.588Z,3.07
2019-04-06T23:40:07.458Z,4.23
2019-04-06T23:42:33.699Z,3.23
2019-04-06T23:45:00.094Z,3.07
2019-04-06T23:47:27.343Z,9.87
2019-04-06T23:49:53.710Z,4.60
2019-04-06T23:52:20.064Z,4.10
2019-04-06T23:54:46.289Z,4.00
2019-04-06T23:57:12.998Z,3.90
2019-04-06T23:59:39.577Z,4.27
